sensor_id;sensor_type;location;lat;lon;timestamp;pressure;altitude;pressure_sealevel;temperature;humidity
24031;BME280;12240;51.142;22.486;2023-03-16T00:01:01;99403.41;;;0.77;100.00
24031;BME280;12240;51.142;22.486;2023-03-16T00:03:29;99386.72;;;0.64;100.00
24031;BME280;12240;51.142;22.486;2023-03-16T00:05:58;99403.00;;;0.69;100.00
24031;BME280;12240;51.142;22.486;2023-03-16T00:08:26;99379.50;;;0.53;100.00
24031;BME280;12240;51.142;22.486;2023-03-16T00:10:54;99406.19;;;0.60;100.00
24031;BME280;12240;51.142;22.486;2023-03-16T00:13:24;99401.78;;;0.60;100.00
24031;BME280;12240;51.142;22.486;2023-03-16T00:15:58;99402.25;;;0.53;100.00
24031;BME280;12240;51.142;22.486;2023-03-16T00:18:29;99403.81;;;0.55;100.00
24031;BME280;12240;51.142;22.486;2023-03-16T00:21:00;99361.00;;;0.27;100.00
24031;BME280;12240;51.142;22.486;2023-03-16T00:23:29;99402.34;;;0.51;100.00
24031;BME280;12240;51.142;22.486;2023-03-16T00:26:06;99408.38;;;0.52;100.00
24031;BME280;12240;51.142;22.486;2023-03-16T00:28:35;99397.25;;;0.48;100.00
24031;BME280;12240;51.142;22.486;2023-03-16T00:31:07;99367.09;;;0.27;100.00
24031;BME280;12240;51.142;22.486;2023-03-16T00:33:40;99391.63;;;0.40;100.00
24031;BME280;12240;51.142;22.486;2023-03-16T00:36:09;99397.91;;;0.38;100.00
24031;BME280;12240;51.142;22.486;2023-03-16T00:38:40;99366.75;;;0.18;100.00
24031;BME280;12240;51.142;22.486;2023-03-16T00:41:14;99420.00;;;0.48;100.00
24031;BME280;12240;51.142;22.486;2023-03-16T00:43:42;99367.03;;;0.13;100.00
24031;BME280;12240;51.142;22.486;2023-03-16T00:46:17;99393.59;;;0.21;100.00
24031;BME280;12240;51.142;22.486;2023-03-16T00:48:46;99364.69;;;0.09;100.00
24031;BME280;12240;51.142;22.486;2023-03-16T00:51:16;99384.69;;;0.10;100.00
24031;BME280;12240;51.142;22.486;2023-03-16T00:53:45;99436.50;;;0.34;100.00
24031;BME280;12240;51.142;22.486;2023-03-16T00:56:14;99428.81;;;0.31;100.00
24031;BME280;12240;51.142;22.486;2023-03-16T00:58:43;99389.44;;;0.03;100.00
24031;BME280;12240;51.142;22.486;2023-03-16T01:01:15;99434.50;;;0.24;100.00
24031;BME280;12240;51.142;22.486;2023-03-16T01:03:44;99364.47;;;-0.18;100.00
24031;BME280;12240;51.142;22.486;2023-03-16T01:06:16;99368.34;;;-0.25;100.00
24031;BME280;12240;51.142;22.486;2023-03-16T01:08:44;99424.13;;;0.07;100.00
24031;BME280;12240;51.142;22.486;2023-03-16T01:11:19;99396.19;;;-0.09;100.00
24031;BME280;12240;51.142;22.486;2023-03-16T01:13:50;99435.88;;;0.15;100.00
24031;BME280;12240;51.142;22.486;2023-03-16T01:16:21;99439.25;;;0.17;100.00
24031;BME280;12240;51.142;22.486;2023-03-16T01:18:53;99441.25;;;0.12;100.00
24031;BME280;12240;51.142;22.486;2023-03-16T01:21:23;99366.16;;;-0.33;100.00
24031;BME280;12240;51.142;22.486;2023-03-16T01:23:51;99447.91;;;0.18;100.00
24031;BME280;12240;51.142;22.486;2023-03-16T01:26:21;99388.31;;;-0.09;100.00
24031;BME280;12240;51.142;22.486;2023-03-16T01:28:52;99434.75;;;0.19;100.00
24031;BME280;12240;51.142;22.486;2023-03-16T01:31:22;99384.31;;;-0.14;100.00
24031;BME280;12240;51.142;22.486;2023-03-16T01:33:50;99391.97;;;-0.11;100.00
24031;BME280;12240;51.142;22.486;2023-03-16T01:36:24;99412.41;;;-0.02;100.00
24031;BME280;12240;51.142;22.486;2023-03-16T01:38:58;99371.13;;;-0.28;100.00
24031;BME280;12240;51.142;22.486;2023-03-16T01:41:32;99338.13;;;-0.46;100.00
24031;BME280;12240;51.142;22.486;2023-03-16T01:44:00;99392.31;;;-0.17;100.00
24031;BME280;12240;51.142;22.486;2023-03-16T01:46:29;99271.00;;;-0.92;100.00
24031;BME280;12240;51.142;22.486;2023-03-16T01:49:24;99439.00;;;0.06;100.00
24031;BME280;12240;51.142;22.486;2023-03-16T01:52:09;99445.91;;;0.07;100.00
24031;BME280;12240;51.142;22.486;2023-03-16T01:55:07;99442.47;;;0.07;100.00
24031;BME280;12240;51.142;22.486;2023-03-16T01:57:44;99437.47;;;0.02;100.00
24031;BME280;12240;51.142;22.486;2023-03-16T02:00:19;99414.44;;;-0.23;100.00
24031;BME280;12240;51.142;22.486;2023-03-16T02:03:14;99430.81;;;-0.04;100.00
24031;BME280;12240;51.142;22.486;2023-03-16T02:08:32;99451.06;;;0.09;100.00
24031;BME280;12240;51.142;22.486;2023-03-16T02:11:03;99456.22;;;0.10;100.00
24031;BME280;12240;51.142;22.486;2023-03-16T02:13:41;99432.00;;;-0.09;100.00
24031;BME280;12240;51.142;22.486;2023-03-16T02:16:11;99408.44;;;-0.25;100.00
24031;BME280;12240;51.142;22.486;2023-03-16T02:18:41;99389.63;;;-0.31;100.00
24031;BME280;12240;51.142;22.486;2023-03-16T02:21:18;99475.28;;;0.12;100.00
24031;BME280;12240;51.142;22.486;2023-03-16T02:23:47;99472.59;;;0.14;100.00
24031;BME280;12240;51.142;22.486;2023-03-16T02:26:45;99471.34;;;0.05;100.00
24031;BME280;12240;51.142;22.486;2023-03-16T02:32:30;99413.09;;;-0.30;100.00
24031;BME280;12240;51.142;22.486;2023-03-16T02:35:01;99481.63;;;0.08;100.00
24031;BME280;12240;51.142;22.486;2023-03-16T02:37:30;99478.25;;;0.06;100.00
24031;BME280;12240;51.142;22.486;2023-03-16T02:40:30;99435.59;;;-0.27;100.00
24031;BME280;12240;51.142;22.486;2023-03-16T02:43:20;99486.69;;;-0.05;100.00
24031;BME280;12240;51.142;22.486;2023-03-16T02:46:02;99421.31;;;-0.53;100.00
24031;BME280;12240;51.142;22.486;2023-03-16T02:49:02;99491.91;;;-0.20;100.00
24031;BME280;12240;51.142;22.486;2023-03-16T02:51:32;99321.84;;;-1.31;100.00
24031;BME280;12240;51.142;22.486;2023-03-16T02:54:00;99446.38;;;-0.64;100.00
24031;BME280;12240;51.142;22.486;2023-03-16T02:56:31;99504.97;;;-0.36;100.00
24031;BME280;12240;51.142;22.486;2023-03-16T02:58:59;99507.84;;;-0.40;100.00
24031;BME280;12240;51.142;22.486;2023-03-16T03:01:29;99497.78;;;-0.48;100.00
24031;BME280;12240;51.142;22.486;2023-03-16T03:03:58;99521.78;;;-0.40;100.00
24031;BME280;12240;51.142;22.486;2023-03-16T03:06:26;99463.47;;;-0.74;100.00
24031;BME280;12240;51.142;22.486;2023-03-16T03:08:55;99508.25;;;-0.48;100.00
24031;BME280;12240;51.142;22.486;2023-03-16T03:11:23;99521.16;;;-0.45;100.00
24031;BME280;12240;51.142;22.486;2023-03-16T03:13:51;99485.97;;;-0.72;100.00
24031;BME280;12240;51.142;22.486;2023-03-16T03:16:23;99474.41;;;-0.83;100.00
24031;BME280;12240;51.142;22.486;2023-03-16T03:18:51;99477.47;;;-0.92;100.00
24031;BME280;12240;51.142;22.486;2023-03-16T03:21:20;99536.44;;;-0.70;100.00
24031;BME280;12240;51.142;22.486;2023-03-16T03:23:50;99531.91;;;-0.66;100.00
24031;BME280;12240;51.142;22.486;2023-03-16T03:26:19;99525.88;;;-0.68;100.00
24031;BME280;12240;51.142;22.486;2023-03-16T03:28:50;99530.03;;;-0.64;100.00
24031;BME280;12240;51.142;22.486;2023-03-16T03:31:21;99540.00;;;-0.71;100.00
24031;BME280;12240;51.142;22.486;2023-03-16T03:33:51;99508.69;;;-0.89;100.00
24031;BME280;12240;51.142;22.486;2023-03-16T03:36:22;99526.75;;;-0.85;100.00
24031;BME280;12240;51.142;22.486;2023-03-16T03:38:51;99548.44;;;-0.83;100.00
24031;BME280;12240;51.142;22.486;2023-03-16T03:41:22;99489.25;;;-1.18;100.00
24031;BME280;12240;51.142;22.486;2023-03-16T03:43:52;99549.59;;;-0.88;100.00
24031;BME280;12240;51.142;22.486;2023-03-16T03:46:20;99547.75;;;-0.86;100.00
24031;BME280;12240;51.142;22.486;2023-03-16T03:48:48;99503.94;;;-1.15;100.00
24031;BME280;12240;51.142;22.486;2023-03-16T03:51:18;99532.22;;;-1.06;100.00
24031;BME280;12240;51.142;22.486;2023-03-16T03:53:58;99555.28;;;-0.97;100.00
24031;BME280;12240;51.142;22.486;2023-03-16T03:56:38;99563.72;;;-0.92;100.00
24031;BME280;12240;51.142;22.486;2023-03-16T03:59:11;99508.06;;;-1.29;100.00
24031;BME280;12240;51.142;22.486;2023-03-16T04:02:15;99573.28;;;-0.91;100.00
24031;BME280;12240;51.142;22.486;2023-03-16T04:04:49;99566.59;;;-0.97;100.00
24031;BME280;12240;51.142;22.486;2023-03-16T04:07:17;99574.19;;;-0.92;100.00
24031;BME280;12240;51.142;22.486;2023-03-16T04:09:46;99520.22;;;-1.28;100.00
24031;BME280;12240;51.142;22.486;2023-03-16T04:12:25;99583.56;;;-1.05;100.00
24031;BME280;12240;51.142;22.486;2023-03-16T04:14:54;99588.72;;;-1.04;100.00
24031;BME280;12240;51.142;22.486;2023-03-16T04:17:24;99583.25;;;-0.99;100.00
24031;BME280;12240;51.142;22.486;2023-03-16T04:19:55;99541.97;;;-1.27;100.00
24031;BME280;12240;51.142;22.486;2023-03-16T04:22:24;99602.25;;;-0.96;100.00
24031;BME280;12240;51.142;22.486;2023-03-16T04:24:52;99558.25;;;-1.22;100.00
24031;BME280;12240;51.142;22.486;2023-03-16T04:27:22;99597.25;;;-1.00;100.00
24031;BME280;12240;51.142;22.486;2023-03-16T04:29:50;99613.84;;;-1.01;100.00
24031;BME280;12240;51.142;22.486;2023-03-16T04:32:22;99554.41;;;-1.32;100.00
24031;BME280;12240;51.142;22.486;2023-03-16T04:34:54;99611.69;;;-1.10;100.00
24031;BME280;12240;51.142;22.486;2023-03-16T04:37:32;99607.59;;;-1.16;100.00
24031;BME280;12240;51.142;22.486;2023-03-16T04:40:02;99620.50;;;-1.13;100.00
24031;BME280;12240;51.142;22.486;2023-03-16T04:42:47;99578.38;;;-1.41;100.00
24031;BME280;12240;51.142;22.486;2023-03-16T04:45:19;99558.69;;;-1.48;100.00
24031;BME280;12240;51.142;22.486;2023-03-16T04:47:51;99626.44;;;-1.09;100.00
24031;BME280;12240;51.142;22.486;2023-03-16T04:50:19;99621.59;;;-1.17;100.00
24031;BME280;12240;51.142;22.486;2023-03-16T04:52:52;99636.97;;;-1.11;100.00
24031;BME280;12240;51.142;22.486;2023-03-16T04:55:21;99643.84;;;-1.08;100.00
24031;BME280;12240;51.142;22.486;2023-03-16T04:57:51;99592.88;;;-1.36;100.00
24031;BME280;12240;51.142;22.486;2023-03-16T05:00:21;99644.25;;;-1.17;100.00
24031;BME280;12240;51.142;22.486;2023-03-16T05:03:01;99621.19;;;-1.27;100.00
24031;BME280;12240;51.142;22.486;2023-03-16T05:05:30;99659.50;;;-1.08;100.00
24031;BME280;12240;51.142;22.486;2023-03-16T05:07:59;99658.41;;;-1.04;100.00
24031;BME280;12240;51.142;22.486;2023-03-16T05:10:32;99605.66;;;-1.30;100.00
24031;BME280;12240;51.142;22.486;2023-03-16T05:13:01;99659.81;;;-0.97;100.00
24031;BME280;12240;51.142;22.486;2023-03-16T05:15:29;99657.81;;;-0.92;100.00
24031;BME280;12240;51.142;22.486;2023-03-16T05:18:11;99656.06;;;-0.92;100.00
24031;BME280;12240;51.142;22.486;2023-03-16T05:20:39;99642.53;;;-1.00;100.00
24031;BME280;12240;51.142;22.486;2023-03-16T05:23:09;99648.59;;;-0.99;100.00
24031;BME280;12240;51.142;22.486;2023-03-16T05:25:47;99658.44;;;-0.87;100.00
24031;BME280;12240;51.142;22.486;2023-03-16T05:28:18;99618.75;;;-1.12;100.00
24031;BME280;12240;51.142;22.486;2023-03-16T05:30:53;99661.75;;;-0.84;100.00
24031;BME280;12240;51.142;22.486;2023-03-16T05:33:25;99664.41;;;-0.67;100.00
24031;BME280;12240;51.142;22.486;2023-03-16T05:36:07;99606.94;;;-0.68;100.00
24031;BME280;12240;51.142;22.486;2023-03-16T05:38:37;99665.00;;;-0.11;100.00
24031;BME280;12240;51.142;22.486;2023-03-16T05:41:09;99598.28;;;-0.52;100.00
24031;BME280;12240;51.142;22.486;2023-03-16T05:43:47;99627.78;;;-0.16;100.00
24031;BME280;12240;51.142;22.486;2023-03-16T05:46:16;99681.88;;;0.49;100.00
24031;BME280;12240;51.142;22.486;2023-03-16T05:48:50;99681.16;;;0.78;100.00
24031;BME280;12240;51.142;22.486;2023-03-16T05:51:20;99625.84;;;0.67;100.00
24031;BME280;12240;51.142;22.486;2023-03-16T05:53:49;99621.44;;;0.83;100.00
24031;BME280;12240;51.142;22.486;2023-03-16T05:56:28;99614.16;;;1.04;100.00
24031;BME280;12240;51.142;22.486;2023-03-16T05:58:58;99684.16;;;1.63;100.00
24031;BME280;12240;51.142;22.486;2023-03-16T06:01:28;99699.03;;;1.92;100.00
24031;BME280;12240;51.142;22.486;2023-03-16T06:03:56;99639.16;;;1.69;100.00
24031;BME280;12240;51.142;22.486;2023-03-16T06:06:27;99642.16;;;1.63;100.00
24031;BME280;12240;51.142;22.486;2023-03-16T06:09:02;99695.00;;;1.86;100.00
24031;BME280;12240;51.142;22.486;2023-03-16T06:11:31;99692.91;;;1.77;100.00
24031;BME280;12240;51.142;22.486;2023-03-16T06:14:00;99714.09;;;1.74;100.00
24031;BME280;12240;51.142;22.486;2023-03-16T06:16:28;99652.13;;;1.42;100.00
24031;BME280;12240;51.142;22.486;2023-03-16T06:18:57;99688.13;;;1.70;100.00
24031;BME280;12240;51.142;22.486;2023-03-16T06:21:29;99707.66;;;1.80;100.00
24031;BME280;12240;51.142;22.486;2023-03-16T06:24:04;99699.00;;;1.78;100.00
24031;BME280;12240;51.142;22.486;2023-03-16T06:26:36;99684.25;;;1.91;100.00
24031;BME280;12240;51.142;22.486;2023-03-16T06:29:07;99670.09;;;2.07;100.00
24031;BME280;12240;51.142;22.486;2023-03-16T06:31:37;99716.38;;;2.66;100.00
24031;BME280;12240;51.142;22.486;2023-03-16T06:34:06;99663.06;;;2.50;100.00
24031;BME280;12240;51.142;22.486;2023-03-16T06:36:34;99678.19;;;2.87;100.00
24031;BME280;12240;51.142;22.486;2023-03-16T06:39:09;99718.00;;;3.36;100.00
24031;BME280;12240;51.142;22.486;2023-03-16T06:41:40;99716.72;;;3.55;100.00
24031;BME280;12240;51.142;22.486;2023-03-16T06:44:12;99709.47;;;3.32;100.00
24031;BME280;12240;51.142;22.486;2023-03-16T06:46:50;99715.75;;;3.03;100.00
24031;BME280;12240;51.142;22.486;2023-03-16T06:49:19;99714.38;;;2.84;100.00
24031;BME280;12240;51.142;22.486;2023-03-16T06:51:49;99726.13;;;2.78;100.00
24031;BME280;12240;51.142;22.486;2023-03-16T06:54:18;99715.63;;;2.64;100.00
24031;BME280;12240;51.142;22.486;2023-03-16T06:56:48;99670.38;;;2.59;100.00
24031;BME280;12240;51.142;22.486;2023-03-16T06:59:16;99719.34;;;3.55;100.00
24031;BME280;12240;51.142;22.486;2023-03-16T07:01:44;99667.66;;;3.01;100.00
24031;BME280;12240;51.142;22.486;2023-03-16T07:04:13;99715.28;;;3.64;100.00
24031;BME280;12240;51.142;22.486;2023-03-16T07:06:41;99619.81;;;3.09;100.00
24031;BME280;12240;51.142;22.486;2023-03-16T07:09:11;99675.78;;;3.64;100.00
24031;BME280;12240;51.142;22.486;2023-03-16T07:11:41;99669.75;;;3.62;100.00
24031;BME280;12240;51.142;22.486;2023-03-16T07:14:09;99667.03;;;3.64;100.00
24031;BME280;12240;51.142;22.486;2023-03-16T07:16:39;99720.38;;;3.92;100.00
24031;BME280;12240;51.142;22.486;2023-03-16T07:19:09;99622.41;;;3.35;100.00
24031;BME280;12240;51.142;22.486;2023-03-16T07:21:38;99716.41;;;4.12;100.00
24031;BME280;12240;51.142;22.486;2023-03-16T07:24:15;99720.97;;;4.35;100.00
24031;BME280;12240;51.142;22.486;2023-03-16T07:26:43;99719.03;;;4.87;100.00
24031;BME280;12240;51.142;22.486;2023-03-16T07:29:24;99717.63;;;5.30;100.00
24031;BME280;12240;51.142;22.486;2023-03-16T07:31:53;99723.66;;;5.32;100.00
24031;BME280;12240;51.142;22.486;2023-03-16T07:34:28;99709.53;;;5.68;100.00
24031;BME280;12240;51.142;22.486;2023-03-16T07:36:58;99696.38;;;6.03;100.00
24031;BME280;12240;51.142;22.486;2023-03-16T07:39:29;99711.00;;;5.96;100.00
24031;BME280;12240;51.142;22.486;2023-03-16T07:42:06;99664.56;;;5.22;100.00
24031;BME280;12240;51.142;22.486;2023-03-16T07:44:57;99718.59;;;5.76;100.00
24031;BME280;12240;51.142;22.486;2023-03-16T07:47:25;99719.84;;;5.36;100.00
24031;BME280;12240;51.142;22.486;2023-03-16T07:50:01;99682.91;;;5.00;100.00
24031;BME280;12240;51.142;22.486;2023-03-16T07:52:30;99721.53;;;4.89;100.00
24031;BME280;12240;51.142;22.486;2023-03-16T07:54:58;99725.78;;;4.91;100.00
24031;BME280;12240;51.142;22.486;2023-03-16T07:57:26;99732.34;;;4.73;100.00
24031;BME280;12240;51.142;22.486;2023-03-16T07:59:55;99728.41;;;5.04;100.00
24031;BME280;12240;51.142;22.486;2023-03-16T08:02:23;99701.53;;;4.73;100.00
24031;BME280;12240;51.142;22.486;2023-03-16T08:04:52;99689.81;;;3.77;100.00
24031;BME280;12240;51.142;22.486;2023-03-16T08:07:21;99750.69;;;4.12;100.00
24031;BME280;12240;51.142;22.486;2023-03-16T08:09:58;99747.75;;;4.66;100.00
24031;BME280;12240;51.142;22.486;2023-03-16T08:12:32;99735.25;;;5.06;100.00
24031;BME280;12240;51.142;22.486;2023-03-16T08:15:01;99745.66;;;4.59;100.00
24031;BME280;12240;51.142;22.486;2023-03-16T08:17:37;99699.25;;;4.19;100.00
24031;BME280;12240;51.142;22.486;2023-03-16T08:20:14;99737.97;;;5.17;100.00
24031;BME280;12240;51.142;22.486;2023-03-16T08:22:44;99735.28;;;6.01;100.00
24031;BME280;12240;51.142;22.486;2023-03-16T08:27:38;99681.06;;;6.74;100.00
24031;BME280;12240;51.142;22.486;2023-03-16T08:30:10;99729.72;;;6.38;100.00
24031;BME280;12240;51.142;22.486;2023-03-16T08:32:44;99679.63;;;6.48;100.00
24031;BME280;12240;51.142;22.486;2023-03-16T08:35:14;99704.44;;;7.34;100.00
24031;BME280;12240;51.142;22.486;2023-03-16T08:37:44;99719.50;;;7.33;100.00
24031;BME280;12240;51.142;22.486;2023-03-16T08:40:13;99735.31;;;7.13;100.00
24031;BME280;12240;51.142;22.486;2023-03-16T08:42:45;99690.94;;;6.61;100.00
24031;BME280;12240;51.142;22.486;2023-03-16T08:45:19;99631.81;;;6.93;100.00
24031;BME280;12240;51.142;22.486;2023-03-16T08:47:48;99674.19;;;7.47;100.00
24031;BME280;12240;51.142;22.486;2023-03-16T08:50:17;99723.13;;;7.32;100.00
24031;BME280;12240;51.142;22.486;2023-03-16T08:52:47;99701.00;;;6.34;100.00
24031;BME280;12240;51.142;22.486;2023-03-16T08:55:16;99752.91;;;6.24;100.00
24031;BME280;12240;51.142;22.486;2023-03-16T08:57:44;99747.38;;;6.27;100.00
24031;BME280;12240;51.142;22.486;2023-03-16T09:00:14;99687.31;;;6.73;100.00
24031;BME280;12240;51.142;22.486;2023-03-16T09:02:43;99710.03;;;7.20;100.00
24031;BME280;12240;51.142;22.486;2023-03-16T09:05:13;99746.25;;;8.04;100.00
24031;BME280;12240;51.142;22.486;2023-03-16T09:07:42;99743.19;;;8.61;100.00
24031;BME280;12240;51.142;22.486;2023-03-16T09:10:11;99739.63;;;8.72;100.00
24031;BME280;12240;51.142;22.486;2023-03-16T09:12:43;99717.78;;;7.86;100.00
24031;BME280;12240;51.142;22.486;2023-03-16T09:15:12;99715.06;;;8.29;100.00
24031;BME280;12240;51.142;22.486;2023-03-16T09:17:41;99750.53;;;7.96;100.00
24031;BME280;12240;51.142;22.486;2023-03-16T09:20:13;99702.78;;;7.64;100.00
24031;BME280;12240;51.142;22.486;2023-03-16T09:23:01;99759.00;;;8.42;100.00
24031;BME280;12240;51.142;22.486;2023-03-16T09:25:30;99757.22;;;8.00;100.00
24031;BME280;12240;51.142;22.486;2023-03-16T09:27:59;99772.63;;;6.98;100.00
24031;BME280;12240;51.142;22.486;2023-03-16T09:30:28;99783.78;;;6.58;100.00
24031;BME280;12240;51.142;22.486;2023-03-16T09:32:57;99773.44;;;6.55;100.00
24031;BME280;12240;51.142;22.486;2023-03-16T09:35:26;99633.97;;;5.54;100.00
24031;BME280;12240;51.142;22.486;2023-03-16T09:37:55;99770.03;;;6.07;100.00
24031;BME280;12240;51.142;22.486;2023-03-16T09:40:34;99774.41;;;6.87;100.00
24031;BME280;12240;51.142;22.486;2023-03-16T09:43:43;99798.50;;;7.06;100.00
24031;BME280;12240;51.142;22.486;2023-03-16T09:46:42;99725.75;;;5.63;100.00
24031;BME280;12240;51.142;22.486;2023-03-16T09:49:18;99767.75;;;5.55;100.00
24031;BME280;12240;51.142;22.486;2023-03-16T09:55:32;99768.50;;;7.28;100.00
24031;BME280;12240;51.142;22.486;2023-03-16T09:58:10;99681.91;;;6.63;100.00
24031;BME280;12240;51.142;22.486;2023-03-16T10:06:27;99766.31;;;7.55;100.00
24031;BME280;12240;51.142;22.486;2023-03-16T10:11:54;99721.00;;;7.58;100.00
24031;BME280;12240;51.142;22.486;2023-03-16T10:17:45;99772.47;;;7.33;100.00
24031;BME280;12240;51.142;22.486;2023-03-16T10:20:20;99760.56;;;7.28;100.00
24031;BME280;12240;51.142;22.486;2023-03-16T10:22:51;99719.78;;;6.64;100.00
24031;BME280;12240;51.142;22.486;2023-03-16T10:25:45;99782.97;;;5.75;100.00
24031;BME280;12240;51.142;22.486;2023-03-16T10:28:20;99785.81;;;6.20;100.00
24031;BME280;12240;51.142;22.486;2023-03-16T10:30:56;99781.41;;;6.31;100.00
24031;BME280;12240;51.142;22.486;2023-03-16T10:33:29;99779.94;;;6.16;100.00
24031;BME280;12240;51.142;22.486;2023-03-16T10:36:28;99763.94;;;6.18;100.00
24031;BME280;12240;51.142;22.486;2023-03-16T10:39:03;99780.94;;;5.92;100.00
24031;BME280;12240;51.142;22.486;2023-03-16T10:41:39;99779.22;;;5.90;100.00
24031;BME280;12240;51.142;22.486;2023-03-16T10:44:25;99774.84;;;6.59;100.00
24031;BME280;12240;51.142;22.486;2023-03-16T10:47:01;99771.84;;;7.52;100.00
24031;BME280;12240;51.142;22.486;2023-03-16T10:49:42;99735.44;;;7.96;99.11
24031;BME280;12240;51.142;22.486;2023-03-16T10:52:39;99742.28;;;7.99;93.91
24031;BME280;12240;51.142;22.486;2023-03-16T10:55:31;99692.00;;;8.29;93.95
24031;BME280;12240;51.142;22.486;2023-03-16T10:58:08;99736.16;;;8.19;92.74
24031;BME280;12240;51.142;22.486;2023-03-16T11:00:41;99742.09;;;8.43;92.90
24031;BME280;12240;51.142;22.486;2023-03-16T11:03:21;99740.25;;;9.34;92.65
24031;BME280;12240;51.142;22.486;2023-03-16T11:06:02;99687.16;;;8.55;91.74
24031;BME280;12240;51.142;22.486;2023-03-16T11:08:40;99737.09;;;8.50;89.60
24031;BME280;12240;51.142;22.486;2023-03-16T11:14:01;99674.75;;;8.65;89.34
24031;BME280;12240;51.142;22.486;2023-03-16T11:16:36;99738.44;;;8.85;89.09
24031;BME280;12240;51.142;22.486;2023-03-16T11:19:30;99716.03;;;7.64;86.75
24031;BME280;12240;51.142;22.486;2023-03-16T11:22:13;99746.03;;;7.96;90.71
24031;BME280;12240;51.142;22.486;2023-03-16T11:32:58;99712.75;;;8.95;82.69
24031;BME280;12240;51.142;22.486;2023-03-16T11:39:29;99676.09;;;8.29;82.98
24031;BME280;12240;51.142;22.486;2023-03-16T11:42:55;99718.03;;;7.51;82.02
24031;BME280;12240;51.142;22.486;2023-03-16T12:00:51;99701.75;;;8.70;76.11
24031;BME280;12240;51.142;22.486;2023-03-16T12:09:46;99730.13;;;7.96;82.69
24031;BME280;12240;51.142;22.486;2023-03-16T12:12:28;99699.94;;;8.50;81.40
24031;BME280;12240;51.142;22.486;2023-03-16T12:15:34;99705.19;;;8.91;80.03
24031;BME280;12240;51.142;22.486;2023-03-16T12:21:30;99693.94;;;9.27;78.03
24031;BME280;12240;51.142;22.486;2023-03-16T12:24:09;99663.13;;;8.96;74.01
24031;BME280;12240;51.142;22.486;2023-03-16T12:26:41;99689.13;;;8.92;74.70
24031;BME280;12240;51.142;22.486;2023-03-16T12:29:30;99639.63;;;8.52;73.63
24031;BME280;12240;51.142;22.486;2023-03-16T12:36:00;99666.56;;;9.36;72.00
24031;BME280;12240;51.142;22.486;2023-03-16T12:39:05;99673.19;;;10.08;71.82
24031;BME280;12240;51.142;22.486;2023-03-16T12:44:21;99648.00;;;10.58;69.56
24031;BME280;12240;51.142;22.486;2023-03-16T12:46:59;99606.69;;;9.80;67.94
24031;BME280;12240;51.142;22.486;2023-03-16T12:49:33;99672.97;;;9.24;68.28
24031;BME280;12240;51.142;22.486;2023-03-16T12:52:10;99608.84;;;8.19;68.44
24031;BME280;12240;51.142;22.486;2023-03-16T12:54:50;99681.53;;;8.88;70.41
24031;BME280;12240;51.142;22.486;2023-03-16T12:57:24;99654.69;;;9.50;70.91
24031;BME280;12240;51.142;22.486;2023-03-16T12:59:57;99664.47;;;9.30;70.30
24031;BME280;12240;51.142;22.486;2023-03-16T13:02:33;99606.00;;;9.11;68.92
24031;BME280;12240;51.142;22.486;2023-03-16T13:05:26;99597.88;;;9.12;66.23
24031;BME280;12240;51.142;22.486;2023-03-16T13:08:13;99658.72;;;9.25;65.60
24031;BME280;12240;51.142;22.486;2023-03-16T13:11:06;99655.81;;;9.47;65.75
24031;BME280;12240;51.142;22.486;2023-03-16T13:14:03;99659.84;;;9.51;65.61
24031;BME280;12240;51.142;22.486;2023-03-16T13:16:40;99656.28;;;9.03;66.34
24031;BME280;12240;51.142;22.486;2023-03-16T13:19:37;99671.16;;;8.75;68.24
24031;BME280;12240;51.142;22.486;2023-03-16T13:22:28;99665.72;;;8.47;68.83
24031;BME280;12240;51.142;22.486;2023-03-16T13:25:21;99684.34;;;9.45;72.32
24031;BME280;12240;51.142;22.486;2023-03-16T13:27:54;99669.38;;;10.01;71.90
24031;BME280;12240;51.142;22.486;2023-03-16T13:30:32;99516.78;;;10.02;70.87
24031;BME280;12240;51.142;22.486;2023-03-16T13:33:16;99654.38;;;11.47;70.58
24031;BME280;12240;51.142;22.486;2023-03-16T13:35:46;99625.00;;;11.12;68.76
24031;BME280;12240;51.142;22.486;2023-03-16T13:38:20;99641.66;;;10.96;67.21
24031;BME280;12240;51.142;22.486;2023-03-16T13:40:52;99637.22;;;9.85;68.10
24031;BME280;12240;51.142;22.486;2023-03-16T13:43:26;99677.78;;;9.87;69.71
24031;BME280;12240;51.142;22.486;2023-03-16T13:45:59;99662.09;;;10.22;70.22
24031;BME280;12240;51.142;22.486;2023-03-16T13:48:28;99643.91;;;10.64;69.24
24031;BME280;12240;51.142;22.486;2023-03-16T13:50:57;99655.94;;;10.22;65.65
24031;BME280;12240;51.142;22.486;2023-03-16T13:53:30;99618.03;;;9.34;64.63
24031;BME280;12240;51.142;22.486;2023-03-16T13:56:00;99679.50;;;8.71;66.23
24031;BME280;12240;51.142;22.486;2023-03-16T13:58:33;99667.03;;;8.62;66.68
24031;BME280;12240;51.142;22.486;2023-03-16T14:01:10;99683.13;;;9.00;67.56
24031;BME280;12240;51.142;22.486;2023-03-16T14:03:43;99683.66;;;8.94;69.48
24031;BME280;12240;51.142;22.486;2023-03-16T14:06:28;99549.09;;;7.64;68.74
24031;BME280;12240;51.142;22.486;2023-03-16T14:09:02;99647.28;;;8.04;71.72
24031;BME280;12240;51.142;22.486;2023-03-16T14:11:31;99656.59;;;7.15;71.04
24031;BME280;12240;51.142;22.486;2023-03-16T14:14:00;99722.91;;;7.67;74.09
24031;BME280;12240;51.142;22.486;2023-03-16T14:16:40;99658.03;;;7.19;73.27
24031;BME280;12240;51.142;22.486;2023-03-16T14:19:24;99721.97;;;6.81;73.54
24031;BME280;12240;51.142;22.486;2023-03-16T14:22:02;99716.75;;;7.66;75.77
24031;BME280;12240;51.142;22.486;2023-03-16T14:24:36;99697.41;;;7.86;73.92
24031;BME280;12240;51.142;22.486;2023-03-16T14:27:25;99702.53;;;7.67;71.94
24031;BME280;12240;51.142;22.486;2023-03-16T14:30:12;99555.44;;;6.35;71.17
24031;BME280;12240;51.142;22.486;2023-03-16T14:33:02;99681.59;;;7.22;72.39
24031;BME280;12240;51.142;22.486;2023-03-16T14:35:40;99661.31;;;7.43;73.60